Time;durP1;ratioP1;P1;durP2;ratioP2;P2;SDS_P1;SDS_P2;PMS_P1;PMS_P2;Temp;Humidity;BMP_temperature;BMP_pressure;BME280_temperature;BME280_humidity;BME280_pressure;Samples;Min_cycle;Max_cycle;Signal;HPM_P1;HPM_P2
2023/10/07 05:00:35;;;;;;;18.80;9.57;;;;;;;;;;6096133;23;20499;-87
2023/10/07 05:03:16;;;;;;;21.93;9.47;;;;;;;;;;4916382;29;20967;-72
2023/10/07 05:05:45;;;;;;;15.30;8.40;;;;;;;;;;4918099;29;20416;-71
2023/10/07 05:08:16;;;;;;;25.60;10.80;;;;;;;;;;4917802;29;20453;-71
2023/10/07 05:10:42;;;;;;;20.60;8.23;;;;;;;;;;4918007;29;20418;-71
2023/10/07 05:13:09;;;;;;;24.87;10.80;;;;;;;;;;4918259;29;20752;-72
2023/10/07 05:15:38;;;;;;;19.40;8.10;;;;;;;;;;4917843;29;20394;-70
2023/10/07 05:18:04;;;;;;;20.80;10.27;;;;;;;;;;4917547;29;20485;-70
2023/10/07 05:20:33;;;;;;;17.87;7.97;;;;;;;;;;4917660;29;20861;-70
2023/10/07 05:23:02;;;;;;;21.23;9.57;;;;;;;;;;4917534;29;20407;-71
2023/10/07 05:25:28;;;;;;;22.60;9.47;;;;;;;;;;4917743;29;20894;-71
2023/10/07 05:27:56;;;;;;;17.90;8.27;;;;;;;;;;4916938;29;20764;-71
2023/10/07 05:30:22;;;;;;;16.23;8.60;;;;;;;;;;4898816;29;20428;-72
2023/10/07 05:32:48;;;;;;;14.93;7.00;;;;;;;;;;4899352;29;20451;-71
2023/10/07 05:35:18;;;;;;;21.07;8.80;;;;;;;;;;4898686;29;20419;-71
2023/10/07 05:37:47;;;;;;;16.60;8.10;;;;;;;;;;4898369;29;20408;-71
2023/10/07 05:40:19;;;;;;;23.17;11.60;;;;;;;;;;4913229;29;20464;-71
2023/10/07 05:42:45;;;;;;;22.37;9.60;;;;;;;;;;4898731;29;20411;-71
2023/10/07 05:45:14;;;;;;;24.23;10.80;;;;;;;;;;4905113;29;20425;-71
2023/10/07 05:47:40;;;;;;;27.43;9.60;;;;;;;;;;4917254;29;20770;-71
2023/10/07 05:50:08;;;;;;;18.77;8.70;;;;;;;;;;4931707;29;20567;-71
2023/10/07 05:52:35;;;;;;;17.37;7.77;;;;;;;;;;4917201;29;20982;-71
2023/10/07 05:55:02;;;;;;;20.60;8.90;;;;;;;;;;4917191;29;20509;-71
2023/10/07 05:57:28;;;;;;;18.30;9.20;;;;;;;;;;4916871;29;20502;-71
2023/10/07 05:59:54;;;;;;;17.33;8.70;;;;;;;;;;4917477;29;20562;-71
2023/10/07 06:02:20;;;;;;;17.27;7.90;;;;;;;;;;4916741;29;20458;-71
2023/10/07 06:04:47;;;;;;;23.13;8.57;;;;;;;;;;4917018;29;20918;-71
2023/10/07 06:07:20;;;;;;;20.80;9.03;;;;;;;;;;4916665;29;20493;-71
2023/10/07 06:09:47;;;;;;;14.17;7.80;;;;;;;;;;4916903;29;20406;-70
2023/10/07 06:12:15;;;;;;;19.10;8.20;;;;;;;;;;4916791;29;20533;-71
2023/10/07 06:14:41;;;;;;;17.63;8.63;;;;;;;;;;4916692;29;20458;-71
2023/10/07 06:17:10;;;;;;;20.20;8.43;;;;;;;;;;4916606;29;20426;-71
2023/10/07 06:19:36;;;;;;;20.63;6.77;;;;;;;;;;4916692;29;20470;-71
2023/10/07 06:22:11;;;;;;;17.53;8.30;;;;;;;;;;4916628;29;20434;-71
2023/10/07 06:24:39;;;;;;;24.40;8.00;;;;;;;;;;4916818;29;20892;-71
2023/10/07 06:27:11;;;;;;;20.53;7.97;;;;;;;;;;4916343;29;20489;-71
2023/10/07 06:29:41;;;;;;;22.30;7.80;;;;;;;;;;4916813;29;20438;-70
2023/10/07 06:32:15;;;;;;;15.13;8.80;;;;;;;;;;4916617;29;20438;-71
2023/10/07 06:34:44;;;;;;;21.23;8.60;;;;;;;;;;4916786;29;20903;-71
2023/10/07 06:37:10;;;;;;;22.40;9.30;;;;;;;;;;4916244;29;20418;-70
2023/10/07 06:39:37;;;;;;;20.43;9.40;;;;;;;;;;4916582;29;20569;-71
2023/10/07 06:42:05;;;;;;;18.07;7.87;;;;;;;;;;4916355;29;20985;-71
2023/10/07 06:44:32;;;;;;;21.73;9.27;;;;;;;;;;4916623;29;20494;-71
2023/10/07 06:47:02;;;;;;;18.30;8.53;;;;;;;;;;4916312;29;20417;-70
2023/10/07 06:49:34;;;;;;;20.23;9.17;;;;;;;;;;4916430;29;20419;-71
2023/10/07 06:52:03;;;;;;;16.93;7.80;;;;;;;;;;4916281;29;20502;-71
2023/10/07 06:54:34;;;;;;;13.30;7.63;;;;;;;;;;4916183;29;20539;-71
2023/10/07 06:57:04;;;;;;;18.97;8.90;;;;;;;;;;4915709;29;20478;-71
2023/10/07 06:59:30;;;;;;;20.87;8.67;;;;;;;;;;4916177;29;20470;-71
2023/10/07 07:01:56;;;;;;;21.93;8.27;;;;;;;;;;4915888;29;20541;-71
2023/10/07 07:04:23;;;;;;;17.17;7.90;;;;;;;;;;4916028;29;20811;-71
2023/10/07 07:07:10;;;;;;;16.20;8.40;;;;;;;;;;4915806;29;20502;-73
2023/10/07 07:12:12;;;;;;;24.07;8.90;;;;;;;;;;4915995;29;20445;-71
2023/10/07 07:14:41;;;;;;;20.00;9.10;;;;;;;;;;4915532;29;20835;-71
2023/10/07 07:20:19;;;;;;;26.80;9.17;;;;;;;;;;4915727;29;20537;-71
2023/10/07 07:22:42;;;;;;;13.97;8.07;;;;;;;;;;4915750;29;20426;-71
2023/10/07 07:25:12;;;;;;;25.23;8.93;;;;;;;;;;4915487;29;20437;-71
2023/10/07 07:27:50;;;;;;;23.03;8.40;;;;;;;;;;4915245;29;20403;-71
2023/10/07 07:30:19;;;;;;;19.37;9.20;;;;;;;;;;4915647;29;20493;-70
2023/10/07 07:32:47;;;;;;;17.00;8.03;;;;;;;;;;4915569;29;20435;-71
2023/10/07 07:35:13;;;;;;;18.37;7.90;;;;;;;;;;4915351;29;20422;-70
2023/10/07 07:37:40;;;;;;;18.17;8.80;;;;;;;;;;4915134;29;20462;-71
2023/10/07 07:40:35;;;;;;;21.20;8.53;;;;;;;;;;4915094;29;20422;-71
2023/10/07 07:42:55;;;;;;;16.23;7.93;;;;;;;;;;4915318;29;20457;-71
2023/10/07 07:45:26;;;;;;;17.70;8.50;;;;;;;;;;4915150;29;20450;-71
2023/10/07 07:47:52;;;;;;;14.57;7.83;;;;;;;;;;4915093;29;20888;-71
2023/10/07 07:50:19;;;;;;;14.83;6.87;;;;;;;;;;4915076;29;20768;-72
2023/10/07 07:52:49;;;;;;;13.20;7.60;;;;;;;;;;4915047;29;20414;-71
2023/10/07 07:55:15;;;;;;;17.83;7.50;;;;;;;;;;4915179;29;20515;-72
2023/10/07 07:57:44;;;;;;;17.20;8.80;;;;;;;;;;4914550;29;20505;-72
2023/10/07 08:00:10;;;;;;;17.30;7.63;;;;;;;;;;4915072;29;20778;-72
2023/10/07 08:02:36;;;;;;;17.63;7.40;;;;;;;;;;4914656;29;20454;-72
2023/10/07 08:05:02;;;;;;;17.77;8.40;;;;;;;;;;4914927;29;20419;-72
2023/10/07 08:07:29;;;;;;;15.93;8.00;;;;;;;;;;4914087;29;20520;-71
2023/10/07 08:09:58;;;;;;;17.33;7.90;;;;;;;;;;4915199;29;20513;-71
2023/10/07 08:12:28;;;;;;;15.00;7.73;;;;;;;;;;4914809;29;20566;-72
2023/10/07 08:15:21;;;;;;;13.47;6.80;;;;;;;;;;4915024;29;21034;-71
2023/10/07 08:17:46;;;;;;;14.20;7.50;;;;;;;;;;4914824;29;20419;-72
2023/10/07 08:20:12;;;;;;;13.30;7.33;;;;;;;;;;4914761;29;20414;-72
2023/10/07 08:22:45;;;;;;;24.53;8.00;;;;;;;;;;4914763;29;20421;-72
2023/10/07 08:25:15;;;;;;;14.60;7.00;;;;;;;;;;4914836;29;20428;-72
2023/10/07 08:27:44;;;;;;;18.90;8.00;;;;;;;;;;4917455;29;20418;-72
2023/10/07 08:30:13;;;;;;;14.90;7.00;;;;;;;;;;4918467;29;20910;-72
2023/10/07 08:32:41;;;;;;;12.83;6.50;;;;;;;;;;4918394;29;20422;-72
2023/10/07 08:35:19;;;;;;;16.73;8.67;;;;;;;;;;4918130;29;20434;-71
2023/10/07 08:37:46;;;;;;;18.80;8.70;;;;;;;;;;4918140;29;20469;-71
2023/10/07 08:40:29;;;;;;;18.83;7.60;;;;;;;;;;4932580;29;20426;-71
2023/10/07 08:42:56;;;;;;;15.03;7.77;;;;;;;;;;4918742;29;20920;-72
2023/10/07 08:45:25;;;;;;;14.53;7.10;;;;;;;;;;4918811;29;20526;-71
2023/10/07 08:47:52;;;;;;;19.30;8.63;;;;;;;;;;4918538;29;20410;-71
2023/10/07 08:50:24;;;;;;;17.00;7.90;;;;;;;;;;4918824;29;20421;-72
2023/10/07 08:53:07;;;;;;;14.00;7.00;;;;;;;;;;4918947;29;20417;-71
2023/10/07 08:55:33;;;;;;;13.90;7.27;;;;;;;;;;4918428;29;20411;-72
2023/10/07 08:58:03;;;;;;;16.93;7.80;;;;;;;;;;4917709;29;20418;-72
2023/10/07 09:00:39;;;;;;;16.23;7.50;;;;;;;;;;4918043;29;20938;-71
2023/10/07 09:03:14;;;;;;;20.80;7.60;;;;;;;;;;4917760;29;20438;-71
2023/10/07 09:05:40;;;;;;;15.40;8.07;;;;;;;;;;4917375;29;20832;-71
2023/10/07 09:08:11;;;;;;;15.37;7.93;;;;;;;;;;4917305;29;20446;-71
2023/10/07 09:10:37;;;;;;;18.77;7.37;;;;;;;;;;4917116;29;20445;-71
2023/10/07 09:13:06;;;;;;;13.93;7.53;;;;;;;;;;4917251;29;20473;-71
2023/10/07 09:15:36;;;;;;;15.60;7.30;;;;;;;;;;4917859;29;20421;-71
2023/10/07 09:18:06;;;;;;;20.97;7.23;;;;;;;;;;4917157;29;20853;-71
2023/10/07 09:20:36;;;;;;;16.73;7.70;;;;;;;;;;4917052;29;20423;-72
2023/10/07 09:23:07;;;;;;;21.73;7.97;;;;;;;;;;4917607;29;20419;-71
2023/10/07 09:25:33;;;;;;;13.90;7.43;;;;;;;;;;4917519;29;20406;-71
2023/10/07 09:28:00;;;;;;;16.30;7.27;;;;;;;;;;4917591;29;20410;-71
2023/10/07 09:33:13;;;;;;;17.40;7.27;;;;;;;;;;4918273;29;20433;-71
2023/10/07 09:35:42;;;;;;;14.97;7.20;;;;;;;;;;4918137;29;20410;-71
2023/10/07 09:38:12;;;;;;;15.13;7.37;;;;;;;;;;4917506;29;20549;-71
2023/10/07 09:43:27;;;;;;;16.50;7.37;;;;;;;;;;4917994;29;20390;-71
2023/10/07 09:45:53;;;;;;;22.73;7.57;;;;;;;;;;4917634;29;20760;-71
2023/10/07 09:48:33;;;;;;;21.13;7.93;;;;;;;;;;4917668;29;20823;-71
2023/10/07 09:51:00;;;;;;;14.97;6.60;;;;;;;;;;4917455;29;20434;-71
2023/10/07 09:53:30;;;;;;;21.37;7.60;;;;;;;;;;4917036;29;20422;-71
2023/10/07 09:56:21;;;;;;;16.00;6.90;;;;;;;;;;4917015;29;20435;-71
2023/10/07 09:59:18;;;;;;;17.40;6.50;;;;;;;;;;4916658;29;21044;-71
2023/10/07 10:01:44;;;;;;;14.10;6.77;;;;;;;;;;4916522;29;20794;-71
2023/10/07 10:04:32;;;;;;;14.60;6.80;;;;;;;;;;4916644;29;20410;-72
2023/10/07 10:07:00;;;;;;;13.10;6.80;;;;;;;;;;4930641;29;20441;-71
2023/10/07 10:09:42;;;;;;;15.73;7.80;;;;;;;;;;4916694;29;20423;-72
2023/10/07 10:17:48;;;;;;;16.80;7.00;;;;;;;;;;4916220;29;20933;-72
2023/10/07 10:20:18;;;;;;;17.63;7.43;;;;;;;;;;4916258;29;20953;-72
2023/10/07 10:22:51;;;;;;;21.07;8.00;;;;;;;;;;4916291;29;20845;-72
2023/10/07 10:28:02;;;;;;;20.93;8.27;;;;;;;;;;4916095;29;20494;-71
2023/10/07 10:30:28;;;;;;;13.63;6.80;;;;;;;;;;4916472;29;20438;-72
2023/10/07 10:32:57;;;;;;;16.70;6.83;;;;;;;;;;4916370;29;20418;-71
2023/10/07 10:35:24;;;;;;;21.97;7.80;;;;;;;;;;4916688;29;20421;-72
2023/10/07 10:37:55;;;;;;;20.37;7.80;;;;;;;;;;4930765;29;20419;-72
2023/10/07 10:40:21;;;;;;;21.23;11.17;;;;;;;;;;4916266;29;20418;-72
2023/10/07 10:42:48;;;;;;;22.83;11.43;;;;;;;;;;4915988;29;20523;-72
2023/10/07 10:45:21;;;;;;;16.13;7.17;;;;;;;;;;4916211;29;20430;-72
2023/10/07 10:47:50;;;;;;;16.83;6.30;;;;;;;;;;4915863;29;20437;-72
2023/10/07 10:50:17;;;;;;;12.83;5.83;;;;;;;;;;4915189;29;20940;-72
2023/10/07 10:52:48;;;;;;;15.50;6.40;;;;;;;;;;4916157;29;20410;-72
2023/10/07 10:55:14;;;;;;;16.80;6.83;;;;;;;;;;4915750;29;20518;-72
2023/10/07 10:57:40;;;;;;;10.63;5.87;;;;;;;;;;4915450;29;20834;-72
2023/10/07 11:00:19;;;;;;;17.63;7.00;;;;;;;;;;4915590;29;20474;-72
2023/10/07 11:02:45;;;;;;;13.83;5.93;;;;;;;;;;4915530;29;20450;-72
2023/10/07 11:05:12;;;;;;;11.47;6.00;;;;;;;;;;4915457;29;20438;-72
2023/10/07 11:07:39;;;;;;;13.40;5.90;;;;;;;;;;4915156;29;20400;-72
2023/10/07 11:10:06;;;;;;;12.27;5.53;;;;;;;;;;4915359;29;20446;-72
2023/10/07 11:12:32;;;;;;;16.20;6.30;;;;;;;;;;4915282;29;20422;-72
2023/10/07 11:15:07;;;;;;;15.73;6.13;;;;;;;;;;5164400;23;20501;-75
2023/10/07 11:17:38;;;;;;;11.60;5.90;;;;;;;;;;4934566;29;20421;-75
2023/10/07 11:20:08;;;;;;;12.63;5.27;;;;;;;;;;4934454;29;20563;-75
2023/10/07 11:22:38;;;;;;;14.53;7.37;;;;;;;;;;4933569;29;20432;-76
2023/10/07 11:25:06;;;;;;;14.33;5.70;;;;;;;;;;4934195;29;20508;-75
2023/10/07 11:27:32;;;;;;;14.17;6.63;;;;;;;;;;4934113;29;21076;-75
2023/10/07 11:30:03;;;;;;;14.50;5.87;;;;;;;;;;4934179;29;20909;-75
2023/10/07 11:32:38;;;;;;;13.17;6.40;;;;;;;;;;4934597;29;20414;-75
2023/10/07 11:35:15;;;;;;;11.43;5.53;;;;;;;;;;4933225;29;20760;-76
2023/10/07 11:37:46;;;;;;;14.40;5.50;;;;;;;;;;4933381;29;20785;-76
2023/10/07 11:40:12;;;;;;;15.10;4.40;;;;;;;;;;4934374;29;20464;-76
2023/10/07 11:42:38;;;;;;;8.00;4.50;;;;;;;;;;4930572;29;20427;-76
2023/10/07 11:45:08;;;;;;;7.90;3.10;;;;;;;;;;4922338;29;20451;-77
2023/10/07 11:47:36;;;;;;;9.37;4.33;;;;;;;;;;4915130;29;20418;-74
2023/10/07 11:50:04;;;;;;;11.73;3.77;;;;;;;;;;4915264;29;20415;-74
2023/10/07 11:52:31;;;;;;;9.60;4.73;;;;;;;;;;4914987;29;20850;-74
2023/10/07 11:54:58;;;;;;;14.67;4.97;;;;;;;;;;4914608;29;20822;-75
2023/10/07 11:57:24;;;;;;;11.57;4.60;;;;;;;;;;4914422;29;20509;-74
2023/10/07 11:59:50;;;;;;;8.67;3.87;;;;;;;;;;4914516;29;20961;-74
2023/10/07 12:02:16;;;;;;;9.80;4.43;;;;;;;;;;4919226;29;20410;-75
2023/10/07 12:04:50;;;;;;;13.13;3.80;;;;;;;;;;4918191;29;20453;-75
2023/10/07 12:07:16;;;;;;;7.47;3.77;;;;;;;;;;4918270;29;20438;-76
2023/10/07 12:09:46;;;;;;;8.97;4.43;;;;;;;;;;4919082;29;20970;-76
2023/10/07 12:12:12;;;;;;;7.93;3.30;;;;;;;;;;4918816;29;20498;-75
2023/10/07 12:14:38;;;;;;;9.80;3.80;;;;;;;;;;4933806;29;20464;-76
2023/10/07 12:17:04;;;;;;;9.20;3.83;;;;;;;;;;4918893;29;20949;-76
2023/10/07 12:19:31;;;;;;;7.00;3.47;;;;;;;;;;4918099;29;20462;-76
2023/10/07 12:21:59;;;;;;;11.30;4.10;;;;;;;;;;4918189;29;20415;-76
2023/10/07 12:24:24;;;;;;;9.23;4.27;;;;;;;;;;4918028;29;20445;-76
2023/10/07 12:26:50;;;;;;;9.33;3.83;;;;;;;;;;4918466;29;20410;-76
2023/10/07 12:29:18;;;;;;;9.47;4.50;;;;;;;;;;4927758;29;20437;-76
2023/10/07 12:31:44;;;;;;;8.70;4.10;;;;;;;;;;4937696;29;20417;-77
2023/10/07 12:34:11;;;;;;;10.33;4.10;;;;;;;;;;4937520;29;20440;-76
2023/10/07 12:36:38;;;;;;;9.80;3.90;;;;;;;;;;4937366;29;20500;-76
2023/10/07 12:39:10;;;;;;;10.10;4.47;;;;;;;;;;4937516;29;20496;-75
2023/10/07 12:41:36;;;;;;;10.70;5.97;;;;;;;;;;4923678;29;20481;-76
2023/10/07 12:44:02;;;;;;;12.27;4.87;;;;;;;;;;4925943;29;21004;-76
2023/10/07 12:46:29;;;;;;;9.50;4.80;;;;;;;;;;4936930;29;20469;-75
2023/10/07 12:48:55;;;;;;;8.17;4.10;;;;;;;;;;4937305;29;20840;-76
2023/10/07 12:51:23;;;;;;;13.00;5.13;;;;;;;;;;4937306;29;20420;-76
2023/10/07 12:53:50;;;;;;;6.53;3.37;;;;;;;;;;4966532;28;20449;-76
2023/10/07 12:56:20;;;;;;;8.73;4.07;;;;;;;;;;4937134;29;20414;-76
2023/10/07 12:58:46;;;;;;;11.23;5.10;;;;;;;;;;4937081;29;20469;-75
2023/10/07 13:01:12;;;;;;;8.60;4.37;;;;;;;;;;4936795;29;20530;-76
2023/10/07 13:03:40;;;;;;;9.50;4.50;;;;;;;;;;4935997;29;20446;-76
2023/10/07 13:06:10;;;;;;;7.93;4.07;;;;;;;;;;4936802;29;20410;-75
2023/10/07 13:08:38;;;;;;;9.13;4.20;;;;;;;;;;4937510;29;20857;-75
2023/10/07 13:11:04;;;;;;;13.60;4.97;;;;;;;;;;4937407;29;20497;-74
2023/10/07 13:13:34;;;;;;;8.50;4.87;;;;;;;;;;4934728;29;20573;-74
2023/10/07 13:16:08;;;;;;;13.50;5.40;;;;;;;;;;4918887;29;20585;-74
2023/10/07 13:18:35;;;;;;;15.07;4.80;;;;;;;;;;4918759;29;20570;-74
2023/10/07 13:21:07;;;;;;;9.57;4.30;;;;;;;;;;4918260;29;20410;-74
2023/10/07 13:23:38;;;;;;;12.03;4.87;;;;;;;;;;4917165;29;20964;-75
2023/10/07 13:26:04;;;;;;;9.93;4.93;;;;;;;;;;4923565;29;20562;-74
2023/10/07 13:28:30;;;;;;;8.50;4.13;;;;;;;;;;4936476;29;20901;-75
2023/10/07 13:30:58;;;;;;;15.90;5.00;;;;;;;;;;4936486;29;20521;-75
2023/10/07 13:33:23;;;;;;;10.10;4.40;;;;;;;;;;4936615;29;20414;-74
2023/10/07 13:35:51;;;;;;;9.43;5.10;;;;;;;;;;4936061;29;20473;-75
2023/10/07 13:38:17;;;;;;;9.37;4.90;;;;;;;;;;4934062;29;20501;-74
2023/10/07 13:40:43;;;;;;;10.97;5.40;;;;;;;;;;4921072;29;20525;-75
2023/10/07 13:43:10;;;;;;;8.27;5.20;;;;;;;;;;4916567;29;20457;-74
2023/10/07 13:45:36;;;;;;;10.20;5.07;;;;;;;;;;4916788;29;20418;-74
2023/10/07 13:48:03;;;;;;;12.37;5.90;;;;;;;;;;4916764;29;20494;-75
2023/10/07 13:50:29;;;;;;;8.83;4.40;;;;;;;;;;4931156;29;20429;-75
2023/10/07 13:53:12;;;;;;;11.70;4.60;;;;;;;;;;4936483;29;20829;-74
2023/10/07 13:58:07;;;;;;;9.70;4.73;;;;;;;;;;4935569;29;20932;-74
2023/10/07 14:02:59;;;;;;;6.67;4.17;;;;;;;;;;4934413;29;20917;-77
2023/10/07 14:05:25;;;;;;;10.87;5.23;;;;;;;;;;4916910;29;20438;-77
2023/10/07 14:07:52;;;;;;;11.13;5.10;;;;;;;;;;4916968;29;20890;-74
2023/10/07 14:10:21;;;;;;;10.73;5.40;;;;;;;;;;4916890;29;20427;-74
2023/10/07 14:12:47;;;;;;;8.10;4.10;;;;;;;;;;4916909;29;20423;-73
2023/10/07 14:15:15;;;;;;;15.30;5.57;;;;;;;;;;4916654;29;20493;-74
2023/10/07 14:17:41;;;;;;;14.80;6.90;;;;;;;;;;4915295;29;20754;-74
2023/10/07 14:20:13;;;;;;;10.53;5.27;;;;;;;;;;4918742;29;20973;-74
2023/10/07 14:22:40;;;;;;;9.70;4.60;;;;;;;;;;4935458;29;20414;-74
2023/10/07 14:25:06;;;;;;;9.63;5.50;;;;;;;;;;4935331;29;20433;-74
2023/10/07 14:27:32;;;;;;;10.43;4.30;;;;;;;;;;4935225;29;20908;-74
2023/10/07 14:29:58;;;;;;;13.87;5.87;;;;;;;;;;4931890;29;20518;-76
2023/10/07 14:32:24;;;;;;;12.17;5.20;;;;;;;;;;4916784;29;20419;-73
2023/10/07 14:34:51;;;;;;;7.90;4.20;;;;;;;;;;4915733;29;20926;-74
2023/10/07 14:37:17;;;;;;;12.30;4.37;;;;;;;;;;4920644;29;20421;-77
2023/10/07 14:39:43;;;;;;;8.83;4.50;;;;;;;;;;4934807;29;20469;-76
2023/10/07 14:42:09;;;;;;;9.10;4.40;;;;;;;;;;4934466;29;20917;-76
2023/10/07 14:44:35;;;;;;;25.93;5.47;;;;;;;;;;4934915;29;20436;-76
2023/10/07 14:47:01;;;;;;;9.23;4.70;;;;;;;;;;4935732;29;20766;-74
2023/10/07 14:49:30;;;;;;;10.43;5.03;;;;;;;;;;4930080;29;20462;-76
2023/10/07 14:51:56;;;;;;;9.60;4.57;;;;;;;;;;4915248;29;20937;-77
2023/10/07 14:54:22;;;;;;;12.70;5.17;;;;;;;;;;4915379;29;20454;-77
2023/10/07 14:56:50;;;;;;;11.00;5.47;;;;;;;;;;4935494;29;20448;-76
2023/10/07 14:59:16;;;;;;;12.10;5.30;;;;;;;;;;4936704;29;20461;-74
2023/10/07 15:01:43;;;;;;;9.60;5.13;;;;;;;;;;4936028;29;20410;-75
2023/10/07 15:04:10;;;;;;;7.63;4.40;;;;;;;;;;4934699;29;20510;-75
2023/10/07 15:06:36;;;;;;;7.00;3.93;;;;;;;;;;4928943;29;20753;-74
2023/10/07 15:09:02;;;;;;;11.10;4.40;;;;;;;;;;4916275;29;20415;-76
2023/10/07 15:11:29;;;;;;;8.60;4.60;;;;;;;;;;4916080;29;20419;-75
2023/10/07 15:13:55;;;;;;;12.53;4.90;;;;;;;;;;4916027;29;20462;-74
2023/10/07 15:16:20;;;;;;;10.80;5.17;;;;;;;;;;4914292;29;20440;-75
2023/10/07 15:18:51;;;;;;;9.00;4.63;;;;;;;;;;4916180;29;20476;-75
2023/10/07 15:21:17;;;;;;;9.30;4.10;;;;;;;;;;4915752;29;20470;-74
2023/10/07 15:23:43;;;;;;;10.20;3.83;;;;;;;;;;4915469;29;20537;-74
2023/10/07 15:26:13;;;;;;;9.77;4.40;;;;;;;;;;4915384;29;20410;-74
2023/10/07 15:28:39;;;;;;;6.80;4.40;;;;;;;;;;4915539;29;20421;-74
2023/10/07 15:31:06;;;;;;;11.57;4.67;;;;;;;;;;4917711;29;20981;-75
2023/10/07 15:33:33;;;;;;;8.40;4.83;;;;;;;;;;4915323;29;20437;-74
2023/10/07 15:35:59;;;;;;;9.40;4.90;;;;;;;;;;4913366;29;20477;-73
2023/10/07 15:38:26;;;;;;;12.20;5.17;;;;;;;;;;4914920;29;20521;-73
2023/10/07 15:40:55;;;;;;;10.23;4.40;;;;;;;;;;4915225;29;20418;-73
2023/10/07 15:43:21;;;;;;;13.53;4.90;;;;;;;;;;4915062;29;20783;-73
2023/10/07 15:45:51;;;;;;;6.80;3.70;;;;;;;;;;4914829;29;20462;-73
2023/10/07 15:48:17;;;;;;;10.10;5.10;;;;;;;;;;4914523;29;20851;-73
2023/10/07 15:50:45;;;;;;;11.43;4.87;;;;;;;;;;4914629;29;20862;-73
2023/10/07 15:53:10;;;;;;;9.80;5.07;;;;;;;;;;4917037;29;20911;-73
2023/10/07 15:55:36;;;;;;;13.90;5.00;;;;;;;;;;4915740;29;20685;-73
2023/10/07 15:58:02;;;;;;;8.57;4.53;;;;;;;;;;4914212;29;20829;-73
2023/10/07 16:00:33;;;;;;;9.63;4.20;;;;;;;;;;4914869;29;20415;-73
2023/10/07 16:02:59;;;;;;;11.33;5.00;;;;;;;;;;4914356;29;20399;-74
2023/10/07 16:05:26;;;;;;;10.97;5.03;;;;;;;;;;4914409;29;20487;-74
2023/10/07 16:07:52;;;;;;;21.20;8.90;;;;;;;;;;4914632;29;20461;-74
2023/10/07 16:10:19;;;;;;;18.73;9.33;;;;;;;;;;4914957;29;20927;-74
2023/10/07 16:12:46;;;;;;;16.40;8.03;;;;;;;;;;4914534;29;20414;-74
2023/10/07 16:15:14;;;;;;;18.20;6.80;;;;;;;;;;4914310;29;20462;-74
2023/10/07 16:17:40;;;;;;;51.93;18.80;;;;;;;;;;4914326;29;20447;-75
2023/10/07 16:20:07;;;;;;;43.17;15.83;;;;;;;;;;4914730;29;20805;-74
2023/10/07 16:22:42;;;;;;;16.30;7.10;;;;;;;;;;4913635;29;20422;-74
2023/10/07 16:25:09;;;;;;;24.50;9.40;;;;;;;;;;4922198;29;20954;-74
2023/10/07 16:27:35;;;;;;;17.47;7.77;;;;;;;;;;4915030;29;20418;-73
2023/10/07 16:30:05;;;;;;;13.97;7.23;;;;;;;;;;4925737;29;20489;-73
2023/10/07 16:32:32;;;;;;;22.43;8.40;;;;;;;;;;4948446;29;20425;-74
2023/10/07 16:34:57;;;;;;;24.03;9.70;;;;;;;;;;4948020;29;20457;-74
2023/10/07 16:37:23;;;;;;;19.87;9.60;;;;;;;;;;4945144;29;20421;-74
2023/10/07 16:39:51;;;;;;;21.13;9.10;;;;;;;;;;4940414;29;20620;-74
2023/10/07 16:42:17;;;;;;;14.37;7.33;;;;;;;;;;4932465;29;20997;-74
2023/10/07 16:44:43;;;;;;;16.87;7.87;;;;;;;;;;4914679;29;20937;-74
2023/10/07 16:47:09;;;;;;;16.30;7.70;;;;;;;;;;4926564;29;20425;-73
2023/10/07 16:49:35;;;;;;;16.60;7.53;;;;;;;;;;4937325;29;20865;-73
2023/10/07 16:52:01;;;;;;;20.13;7.40;;;;;;;;;;4937520;29;20425;-74
2023/10/07 16:54:27;;;;;;;17.47;7.27;;;;;;;;;;4920667;29;20461;-73
2023/10/07 16:56:53;;;;;;;16.70;6.63;;;;;;;;;;4918364;29;20497;-74
2023/10/07 16:59:19;;;;;;;17.03;8.40;;;;;;;;;;4917840;29;20485;-73
2023/10/07 17:01:45;;;;;;;20.07;8.37;;;;;;;;;;4918071;29;20780;-73
2023/10/07 17:04:12;;;;;;;13.73;6.67;;;;;;;;;;4917530;29;20930;-74
2023/10/07 17:06:38;;;;;;;18.23;8.00;;;;;;;;;;4933625;29;20438;-74
2023/10/07 17:09:05;;;;;;;17.47;7.87;;;;;;;;;;4937171;29;20421;-73
2023/10/07 17:11:31;;;;;;;17.47;8.43;;;;;;;;;;4928442;29;20438;-73
2023/10/07 17:13:57;;;;;;;19.43;8.40;;;;;;;;;;4935487;29;20472;-75
2023/10/07 17:16:23;;;;;;;29.83;10.87;;;;;;;;;;4919895;29;20437;-75
2023/10/07 17:18:50;;;;;;;25.63;10.10;;;;;;;;;;4929467;29;20481;-74
2023/10/07 17:21:19;;;;;;;19.70;8.50;;;;;;;;;;4925157;29;20419;-75
2023/10/07 17:23:44;;;;;;;18.93;8.83;;;;;;;;;;4917750;29;20458;-75
2023/10/07 17:26:10;;;;;;;18.80;9.13;;;;;;;;;;4934578;29;20475;-75
2023/10/07 17:28:37;;;;;;;22.17;10.43;;;;;;;;;;4936008;29;20422;-76
2023/10/07 17:31:07;;;;;;;19.50;7.77;;;;;;;;;;4934265;29;20535;-74
2023/10/07 17:33:33;;;;;;;19.63;9.43;;;;;;;;;;4936099;29;20497;-75
2023/10/07 17:35:59;;;;;;;25.97;11.00;;;;;;;;;;4935746;29;20426;-75
2023/10/07 17:38:25;;;;;;;17.13;9.77;;;;;;;;;;4924144;29;20484;-76
2023/10/07 17:40:51;;;;;;;27.43;11.30;;;;;;;;;;4917137;29;20430;-75
2023/10/07 17:43:17;;;;;;;25.93;12.57;;;;;;;;;;4929518;29;20508;-75
2023/10/07 17:45:43;;;;;;;31.50;12.23;;;;;;;;;;4920706;29;20489;-75
2023/10/07 17:48:11;;;;;;;24.67;10.97;;;;;;;;;;4917424;29;20419;-76
2023/10/07 17:50:37;;;;;;;29.83;11.27;;;;;;;;;;4930863;29;20430;-75
2023/10/07 17:53:06;;;;;;;20.40;10.77;;;;;;;;;;4925431;29;20429;-75
2023/10/07 17:55:32;;;;;;;24.90;11.13;;;;;;;;;;4917119;29;20426;-76
2023/10/07 17:57:58;;;;;;;20.20;10.10;;;;;;;;;;4925854;29;20429;-75
2023/10/07 18:00:26;;;;;;;24.63;10.73;;;;;;;;;;4934701;29;20517;-76
2023/10/07 18:02:53;;;;;;;26.03;11.27;;;;;;;;;;4935880;29;20481;-76
2023/10/07 18:05:21;;;;;;;22.87;10.80;;;;;;;;;;4933621;29;20862;-77
2023/10/07 18:07:49;;;;;;;20.53;10.60;;;;;;;;;;4915805;29;20808;-77
2023/10/07 18:10:15;;;;;;;20.30;11.20;;;;;;;;;;4917086;29;20422;-76
2023/10/07 18:12:42;;;;;;;18.77;11.13;;;;;;;;;;4919056;29;20437;-76
2023/10/07 18:15:09;;;;;;;22.27;10.07;;;;;;;;;;4925792;29;20462;-76
2023/10/07 18:17:35;;;;;;;21.40;9.93;;;;;;;;;;4915188;29;20923;-77
2023/10/07 18:20:01;;;;;;;19.50;9.50;;;;;;;;;;4924903;29;20474;-76
2023/10/07 18:22:27;;;;;;;22.70;11.87;;;;;;;;;;4922433;29;20438;-72
2023/10/07 18:24:53;;;;;;;18.73;10.60;;;;;;;;;;4921555;29;20474;-76
2023/10/07 18:27:19;;;;;;;28.93;11.63;;;;;;;;;;4916340;29;20433;-76
2023/10/07 18:29:46;;;;;;;30.10;10.57;;;;;;;;;;4915047;29;20919;-76
2023/10/07 18:32:11;;;;;;;27.10;10.80;;;;;;;;;;4917084;29;20427;-76
2023/10/07 18:34:37;;;;;;;19.13;10.10;;;;;;;;;;4915031;29;20446;-76
2023/10/07 18:37:04;;;;;;;22.80;10.93;;;;;;;;;;4916293;29;20418;-76
2023/10/07 18:39:29;;;;;;;21.93;10.03;;;;;;;;;;4917094;29;20480;-76
2023/10/07 18:41:55;;;;;;;27.20;11.17;;;;;;;;;;4915529;29;20498;-76
2023/10/07 18:44:21;;;;;;;23.53;11.43;;;;;;;;;;4924362;29;20450;-76
2023/10/07 18:46:48;;;;;;;21.23;10.50;;;;;;;;;;4935731;29;20913;-76
2023/10/07 18:49:15;;;;;;;22.53;10.20;;;;;;;;;;4935713;29;20405;-75
2023/10/07 18:51:41;;;;;;;19.77;10.33;;;;;;;;;;4927182;29;20430;-75
2023/10/07 18:54:07;;;;;;;23.20;10.13;;;;;;;;;;4915717;29;20434;-76
2023/10/07 18:56:33;;;;;;;15.73;9.60;;;;;;;;;;4916216;29;20414;-74
2023/10/07 18:58:59;;;;;;;19.73;10.40;;;;;;;;;;4916286;29;20477;-75
2023/10/07 19:01:25;;;;;;;21.23;9.97;;;;;;;;;;4916082;29;20470;-75
2023/10/07 19:03:51;;;;;;;18.97;9.97;;;;;;;;;;4916603;29;20443;-75
2023/10/07 19:06:17;;;;;;;19.53;9.60;;;;;;;;;;4917883;29;20426;-76
2023/10/07 19:08:43;;;;;;;20.17;9.60;;;;;;;;;;4918506;29;20415;-75
2023/10/07 19:11:11;;;;;;;17.73;8.13;;;;;;;;;;4926594;29;20448;-76
2023/10/07 19:13:37;;;;;;;17.00;8.33;;;;;;;;;;4934993;29;20434;-76
2023/10/07 19:16:03;;;;;;;18.40;9.07;;;;;;;;;;4934946;29;20722;-76
2023/10/07 19:18:30;;;;;;;26.00;9.50;;;;;;;;;;4934848;29;20600;-76
2023/10/07 19:20:58;;;;;;;19.13;10.00;;;;;;;;;;4935621;29;20459;-75
2023/10/07 19:23:24;;;;;;;20.70;9.83;;;;;;;;;;4929915;29;20461;-76
2023/10/07 19:26:10;;;;;;;26.97;12.73;;;;;;;;;;4934377;29;20421;-76
2023/10/07 19:28:36;;;;;;;14.60;8.10;;;;;;;;;;4934131;29;20422;-76
2023/10/07 19:31:02;;;;;;;18.17;8.70;;;;;;;;;;4934866;29;20985;-76
2023/10/07 19:33:28;;;;;;;20.87;9.30;;;;;;;;;;4934674;29;20949;-75
2023/10/07 19:35:57;;;;;;;17.90;9.20;;;;;;;;;;4934553;29;20420;-76
2023/10/07 19:38:24;;;;;;;18.53;8.90;;;;;;;;;;4931880;29;20853;-75
2023/10/07 19:40:50;;;;;;;15.00;8.37;;;;;;;;;;4924618;29;20489;-75
2023/10/07 19:43:16;;;;;;;16.43;7.30;;;;;;;;;;4934319;29;20418;-75
2023/10/07 19:45:43;;;;;;;16.40;8.53;;;;;;;;;;4934254;29;20456;-75
2023/10/07 19:48:08;;;;;;;18.63;7.20;;;;;;;;;;4925902;29;20875;-75
2023/10/07 19:50:35;;;;;;;21.20;8.20;;;;;;;;;;4914339;29;20433;-75
2023/10/07 19:53:03;;;;;;;16.57;7.70;;;;;;;;;;4915611;29;20556;-75
2023/10/07 19:55:29;;;;;;;19.43;8.30;;;;;;;;;;4915393;29;21002;-76
2023/10/07 19:57:55;;;;;;;15.00;7.07;;;;;;;;;;4915134;29;20600;-76
2023/10/07 20:00:21;;;;;;;9.70;6.77;;;;;;;;;;4919575;29;20506;-73